sensor_id;sensor_type;location;lat;lon;timestamp;temperature;humidity
17774;DHT22;9011;33.236;-97.118;2024-03-17T00:00:12;15.50;99.90
17774;DHT22;9011;33.236;-97.118;2024-03-17T00:02:41;15.50;99.90
17774;DHT22;9011;33.236;-97.118;2024-03-17T00:05:08;15.50;99.90
17774;DHT22;9011;33.236;-97.118;2024-03-17T00:07:36;15.40;99.90
17774;DHT22;9011;33.236;-97.118;2024-03-17T00:10:03;15.50;99.90
17774;DHT22;9011;33.236;-97.118;2024-03-17T00:12:32;15.50;99.90
17774;DHT22;9011;33.236;-97.118;2024-03-17T00:14:59;15.40;99.90
17774;DHT22;9011;33.236;-97.118;2024-03-17T00:17:26;15.50;99.90
17774;DHT22;9011;33.236;-97.118;2024-03-17T00:19:53;15.40;99.90
17774;DHT22;9011;33.236;-97.118;2024-03-17T00:22:21;15.40;99.90
17774;DHT22;9011;33.236;-97.118;2024-03-17T00:24:48;15.40;99.90
17774;DHT22;9011;33.236;-97.118;2024-03-17T00:27:15;15.40;99.90
17774;DHT22;9011;33.236;-97.118;2024-03-17T00:29:44;15.40;99.90
17774;DHT22;9011;33.236;-97.118;2024-03-17T00:32:11;15.40;99.90
17774;DHT22;9011;33.236;-97.118;2024-03-17T00:34:38;15.50;99.90
17774;DHT22;9011;33.236;-97.118;2024-03-17T00:37:06;15.40;99.90
17774;DHT22;9011;33.236;-97.118;2024-03-17T00:39:34;15.40;99.90
17774;DHT22;9011;33.236;-97.118;2024-03-17T00:42:01;15.40;99.90
17774;DHT22;9011;33.236;-97.118;2024-03-17T00:44:28;15.40;99.90
17774;DHT22;9011;33.236;-97.118;2024-03-17T00:46:56;15.50;99.90
17774;DHT22;9011;33.236;-97.118;2024-03-17T00:49:24;15.40;99.90
17774;DHT22;9011;33.236;-97.118;2024-03-17T00:51:51;15.40;99.90
17774;DHT22;9011;33.236;-97.118;2024-03-17T00:54:18;15.30;99.90
17774;DHT22;9011;33.236;-97.118;2024-03-17T00:56:46;15.30;99.90
17774;DHT22;9011;33.236;-97.118;2024-03-17T00:59:13;15.30;99.90
17774;DHT22;9011;33.236;-97.118;2024-03-17T01:01:41;15.40;99.90
17774;DHT22;9011;33.236;-97.118;2024-03-17T01:04:11;15.30;99.90
17774;DHT22;9011;33.236;-97.118;2024-03-17T01:06:39;15.10;99.90
17774;DHT22;9011;33.236;-97.118;2024-03-17T01:09:07;15.20;99.90
17774;DHT22;9011;33.236;-97.118;2024-03-17T01:11:35;15.20;99.90
17774;DHT22;9011;33.236;-97.118;2024-03-17T01:14:02;15.10;99.90
17774;DHT22;9011;33.236;-97.118;2024-03-17T01:16:30;15.10;99.90
17774;DHT22;9011;33.236;-97.118;2024-03-17T01:18:57;15.10;99.90
17774;DHT22;9011;33.236;-97.118;2024-03-17T01:21:25;15.00;99.90
17774;DHT22;9011;33.236;-97.118;2024-03-17T01:23:53;15.10;99.90
17774;DHT22;9011;33.236;-97.118;2024-03-17T01:26:20;15.10;99.90
17774;DHT22;9011;33.236;-97.118;2024-03-17T01:28:47;15.20;99.90
17774;DHT22;9011;33.236;-97.118;2024-03-17T01:31:15;15.20;99.90
17774;DHT22;9011;33.236;-97.118;2024-03-17T01:33:42;15.20;99.90
17774;DHT22;9011;33.236;-97.118;2024-03-17T01:36:10;15.20;99.90
17774;DHT22;9011;33.236;-97.118;2024-03-17T01:38:38;15.20;99.90
17774;DHT22;9011;33.236;-97.118;2024-03-17T01:41:05;15.20;99.90
17774;DHT22;9011;33.236;-97.118;2024-03-17T01:43:32;15.10;99.90
17774;DHT22;9011;33.236;-97.118;2024-03-17T01:46:00;15.10;99.90
17774;DHT22;9011;33.236;-97.118;2024-03-17T01:48:28;15.20;99.90
17774;DHT22;9011;33.236;-97.118;2024-03-17T01:50:56;15.20;99.90
17774;DHT22;9011;33.236;-97.118;2024-03-17T01:53:25;15.00;99.90
17774;DHT22;9011;33.236;-97.118;2024-03-17T01:55:57;15.00;99.90
17774;DHT22;9011;33.236;-97.118;2024-03-17T01:58:26;15.00;99.90
17774;DHT22;9011;33.236;-97.118;2024-03-17T02:00:54;15.00;99.90
17774;DHT22;9011;33.236;-97.118;2024-03-17T02:03:22;15.00;99.90
17774;DHT22;9011;33.236;-97.118;2024-03-17T02:05:49;14.90;99.90
17774;DHT22;9011;33.236;-97.118;2024-03-17T02:08:17;14.90;99.90
17774;DHT22;9011;33.236;-97.118;2024-03-17T02:10:45;14.90;99.90
17774;DHT22;9011;33.236;-97.118;2024-03-17T02:13:13;14.90;99.90
17774;DHT22;9011;33.236;-97.118;2024-03-17T02:15:41;14.80;99.90
17774;DHT22;9011;33.236;-97.118;2024-03-17T02:18:08;14.90;99.90
17774;DHT22;9011;33.236;-97.118;2024-03-17T02:20:36;14.90;99.90
17774;DHT22;9011;33.236;-97.118;2024-03-17T02:23:22;14.90;99.90
17774;DHT22;9011;33.236;-97.118;2024-03-17T02:25:52;14.90;99.90
17774;DHT22;9011;33.236;-97.118;2024-03-17T02:28:19;14.90;99.90
17774;DHT22;9011;33.236;-97.118;2024-03-17T02:30:47;14.90;99.90
17774;DHT22;9011;33.236;-97.118;2024-03-17T02:33:14;14.80;99.90
17774;DHT22;9011;33.236;-97.118;2024-03-17T02:35:42;14.90;99.90
17774;DHT22;9011;33.236;-97.118;2024-03-17T02:38:10;14.80;99.90
17774;DHT22;9011;33.236;-97.118;2024-03-17T02:41:03;14.80;99.90
17774;DHT22;9011;33.236;-97.118;2024-03-17T02:43:30;14.80;99.90
17774;DHT22;9011;33.236;-97.118;2024-03-17T02:45:58;14.80;99.90
17774;DHT22;9011;33.236;-97.118;2024-03-17T02:48:25;14.90;99.90
17774;DHT22;9011;33.236;-97.118;2024-03-17T02:50:53;14.80;99.90
17774;DHT22;9011;33.236;-97.118;2024-03-17T02:53:20;14.90;99.90
17774;DHT22;9011;33.236;-97.118;2024-03-17T02:55:48;14.90;99.90
17774;DHT22;9011;33.236;-97.118;2024-03-17T02:58:16;15.00;99.90
17774;DHT22;9011;33.236;-97.118;2024-03-17T03:00:44;15.00;99.90
17774;DHT22;9011;33.236;-97.118;2024-03-17T03:03:11;14.90;99.90
17774;DHT22;9011;33.236;-97.118;2024-03-17T03:05:39;14.90;99.90
17774;DHT22;9011;33.236;-97.118;2024-03-17T03:08:07;14.90;99.90
17774;DHT22;9011;33.236;-97.118;2024-03-17T03:10:35;15.00;99.90
17774;DHT22;9011;33.236;-97.118;2024-03-17T03:13:02;15.00;99.90
17774;DHT22;9011;33.236;-97.118;2024-03-17T03:15:32;14.90;99.90
17774;DHT22;9011;33.236;-97.118;2024-03-17T03:17:59;15.00;99.90
17774;DHT22;9011;33.236;-97.118;2024-03-17T03:20:27;15.10;99.90
17774;DHT22;9011;33.236;-97.118;2024-03-17T03:22:55;15.10;99.90
17774;DHT22;9011;33.236;-97.118;2024-03-17T03:25:23;15.10;99.90
17774;DHT22;9011;33.236;-97.118;2024-03-17T03:27:50;15.00;99.90
17774;DHT22;9011;33.236;-97.118;2024-03-17T03:30:19;15.00;99.90
17774;DHT22;9011;33.236;-97.118;2024-03-17T03:32:48;15.00;99.90
17774;DHT22;9011;33.236;-97.118;2024-03-17T03:35:16;14.90;99.90
17774;DHT22;9011;33.236;-97.118;2024-03-17T03:37:43;14.90;99.90
17774;DHT22;9011;33.236;-97.118;2024-03-17T03:40:11;15.00;99.90
17774;DHT22;9011;33.236;-97.118;2024-03-17T03:42:42;15.00;99.90
17774;DHT22;9011;33.236;-97.118;2024-03-17T03:45:10;14.90;99.90
17774;DHT22;9011;33.236;-97.118;2024-03-17T03:47:38;14.90;99.90
17774;DHT22;9011;33.236;-97.118;2024-03-17T03:50:08;14.90;99.90
17774;DHT22;9011;33.236;-97.118;2024-03-17T03:52:36;14.90;99.90
17774;DHT22;9011;33.236;-97.118;2024-03-17T03:55:04;14.90;99.90
17774;DHT22;9011;33.236;-97.118;2024-03-17T03:57:33;14.90;99.90
17774;DHT22;9011;33.236;-97.118;2024-03-17T04:00:01;14.90;99.90
17774;DHT22;9011;33.236;-97.118;2024-03-17T04:02:32;14.90;99.90
17774;DHT22;9011;33.236;-97.118;2024-03-17T04:05:00;14.80;99.90
17774;DHT22;9011;33.236;-97.118;2024-03-17T04:07:29;14.80;99.90
17774;DHT22;9011;33.236;-97.118;2024-03-17T04:09:57;14.80;99.90
17774;DHT22;9011;33.236;-97.118;2024-03-17T04:12:25;14.70;99.90
17774;DHT22;9011;33.236;-97.118;2024-03-17T04:14:53;14.70;99.90
17774;DHT22;9011;33.236;-97.118;2024-03-17T04:17:21;14.60;99.90
17774;DHT22;9011;33.236;-97.118;2024-03-17T04:19:49;14.50;99.90
17774;DHT22;9011;33.236;-97.118;2024-03-17T04:22:17;14.50;99.90
17774;DHT22;9011;33.236;-97.118;2024-03-17T04:24:46;14.60;99.90
17774;DHT22;9011;33.236;-97.118;2024-03-17T04:27:15;14.60;99.90
17774;DHT22;9011;33.236;-97.118;2024-03-17T04:29:42;14.60;99.90
17774;DHT22;9011;33.236;-97.118;2024-03-17T04:32:10;14.60;99.90
17774;DHT22;9011;33.236;-97.118;2024-03-17T04:34:37;14.60;99.90
17774;DHT22;9011;33.236;-97.118;2024-03-17T04:37:05;14.60;99.90
17774;DHT22;9011;33.236;-97.118;2024-03-17T04:39:33;14.60;99.90
17774;DHT22;9011;33.236;-97.118;2024-03-17T04:42:01;14.60;99.90
17774;DHT22;9011;33.236;-97.118;2024-03-17T04:44:30;14.70;99.90
17774;DHT22;9011;33.236;-97.118;2024-03-17T04:46:58;14.70;99.90
17774;DHT22;9011;33.236;-97.118;2024-03-17T04:49:25;14.60;99.90
17774;DHT22;9011;33.236;-97.118;2024-03-17T04:51:53;14.60;99.90
17774;DHT22;9011;33.236;-97.118;2024-03-17T04:54:21;14.60;99.90
17774;DHT22;9011;33.236;-97.118;2024-03-17T04:56:48;14.70;99.90
17774;DHT22;9011;33.236;-97.118;2024-03-17T04:59:16;14.70;99.90
17774;DHT22;9011;33.236;-97.118;2024-03-17T05:01:44;14.70;99.90
17774;DHT22;9011;33.236;-97.118;2024-03-17T05:04:12;14.70;99.90
17774;DHT22;9011;33.236;-97.118;2024-03-17T05:06:39;14.70;99.90
17774;DHT22;9011;33.236;-97.118;2024-03-17T05:09:08;14.70;99.90
17774;DHT22;9011;33.236;-97.118;2024-03-17T05:11:39;14.70;99.90
17774;DHT22;9011;33.236;-97.118;2024-03-17T05:14:07;14.70;99.90
17774;DHT22;9011;33.236;-97.118;2024-03-17T05:16:35;14.70;99.90
17774;DHT22;9011;33.236;-97.118;2024-03-17T05:19:03;14.60;99.90
17774;DHT22;9011;33.236;-97.118;2024-03-17T05:21:31;14.60;99.90
17774;DHT22;9011;33.236;-97.118;2024-03-17T05:24:00;14.70;99.90
17774;DHT22;9011;33.236;-97.118;2024-03-17T05:26:28;14.60;99.90
17774;DHT22;9011;33.236;-97.118;2024-03-17T05:28:56;14.60;99.90
17774;DHT22;9011;33.236;-97.118;2024-03-17T05:31:24;14.60;99.90
17774;DHT22;9011;33.236;-97.118;2024-03-17T05:33:53;14.70;99.90
17774;DHT22;9011;33.236;-97.118;2024-03-17T05:36:20;14.60;99.90
17774;DHT22;9011;33.236;-97.118;2024-03-17T05:38:48;14.70;99.90
17774;DHT22;9011;33.236;-97.118;2024-03-17T05:41:15;14.60;99.90
17774;DHT22;9011;33.236;-97.118;2024-03-17T05:43:43;14.70;99.90
17774;DHT22;9011;33.236;-97.118;2024-03-17T05:46:11;14.60;99.90
17774;DHT22;9011;33.236;-97.118;2024-03-17T05:48:40;14.60;99.90
17774;DHT22;9011;33.236;-97.118;2024-03-17T05:51:09;14.70;99.90
17774;DHT22;9011;33.236;-97.118;2024-03-17T05:53:38;14.60;99.90
17774;DHT22;9011;33.236;-97.118;2024-03-17T05:56:06;14.70;99.90
17774;DHT22;9011;33.236;-97.118;2024-03-17T05:58:35;14.70;99.90
17774;DHT22;9011;33.236;-97.118;2024-03-17T06:01:04;14.60;99.90
17774;DHT22;9011;33.236;-97.118;2024-03-17T06:03:33;14.60;99.90
17774;DHT22;9011;33.236;-97.118;2024-03-17T06:06:02;14.60;99.90
17774;DHT22;9011;33.236;-97.118;2024-03-17T06:08:31;14.60;99.90
17774;DHT22;9011;33.236;-97.118;2024-03-17T06:10:59;14.60;99.90
17774;DHT22;9011;33.236;-97.118;2024-03-17T06:13:27;14.50;99.90
17774;DHT22;9011;33.236;-97.118;2024-03-17T06:15:55;14.50;99.90
17774;DHT22;9011;33.236;-97.118;2024-03-17T06:18:27;14.50;99.90
17774;DHT22;9011;33.236;-97.118;2024-03-17T06:20:55;14.60;99.90
17774;DHT22;9011;33.236;-97.118;2024-03-17T06:23:24;14.60;99.90
17774;DHT22;9011;33.236;-97.118;2024-03-17T06:25:54;14.50;99.90
17774;DHT22;9011;33.236;-97.118;2024-03-17T06:28:22;14.60;99.90
17774;DHT22;9011;33.236;-97.118;2024-03-17T06:30:57;14.60;99.90
17774;DHT22;9011;33.236;-97.118;2024-03-17T06:33:26;14.60;99.90
17774;DHT22;9011;33.236;-97.118;2024-03-17T06:35:55;14.60;99.90
17774;DHT22;9011;33.236;-97.118;2024-03-17T06:38:22;14.60;99.90
17774;DHT22;9011;33.236;-97.118;2024-03-17T06:40:50;14.60;99.90
17774;DHT22;9011;33.236;-97.118;2024-03-17T06:43:19;14.60;99.90
17774;DHT22;9011;33.236;-97.118;2024-03-17T06:45:57;14.50;99.90
17774;DHT22;9011;33.236;-97.118;2024-03-17T06:48:25;14.50;99.90
17774;DHT22;9011;33.236;-97.118;2024-03-17T06:50:53;14.60;99.90
17774;DHT22;9011;33.236;-97.118;2024-03-17T06:53:21;14.60;99.90
17774;DHT22;9011;33.236;-97.118;2024-03-17T06:55:55;14.50;99.90
17774;DHT22;9011;33.236;-97.118;2024-03-17T06:58:24;14.60;99.90
17774;DHT22;9011;33.236;-97.118;2024-03-17T07:00:56;14.50;99.90
17774;DHT22;9011;33.236;-97.118;2024-03-17T07:03:26;14.50;99.90
17774;DHT22;9011;33.236;-97.118;2024-03-17T07:05:54;14.50;99.90
17774;DHT22;9011;33.236;-97.118;2024-03-17T07:08:22;14.50;99.90
17774;DHT22;9011;33.236;-97.118;2024-03-17T07:11:00;14.40;99.90
17774;DHT22;9011;33.236;-97.118;2024-03-17T07:13:31;14.30;99.90
17774;DHT22;9011;33.236;-97.118;2024-03-17T07:15:59;14.30;99.90
17774;DHT22;9011;33.236;-97.118;2024-03-17T07:18:27;14.30;99.90
17774;DHT22;9011;33.236;-97.118;2024-03-17T07:20:57;14.20;99.90
17774;DHT22;9011;33.236;-97.118;2024-03-17T07:23:25;14.20;99.90
17774;DHT22;9011;33.236;-97.118;2024-03-17T07:25:53;14.10;99.90
17774;DHT22;9011;33.236;-97.118;2024-03-17T07:28:21;14.20;99.90
17774;DHT22;9011;33.236;-97.118;2024-03-17T07:30:50;14.10;99.90
17774;DHT22;9011;33.236;-97.118;2024-03-17T07:33:19;14.00;99.90
17774;DHT22;9011;33.236;-97.118;2024-03-17T07:35:48;14.10;99.90
17774;DHT22;9011;33.236;-97.118;2024-03-17T07:38:16;14.00;99.90
17774;DHT22;9011;33.236;-97.118;2024-03-17T07:40:43;14.00;99.90
17774;DHT22;9011;33.236;-97.118;2024-03-17T07:43:11;14.00;99.90
17774;DHT22;9011;33.236;-97.118;2024-03-17T07:45:39;14.00;99.90
17774;DHT22;9011;33.236;-97.118;2024-03-17T07:48:08;13.90;99.90
17774;DHT22;9011;33.236;-97.118;2024-03-17T07:50:36;13.90;99.90
17774;DHT22;9011;33.236;-97.118;2024-03-17T07:53:03;13.90;99.90
17774;DHT22;9011;33.236;-97.118;2024-03-17T07:55:31;13.80;99.90
17774;DHT22;9011;33.236;-97.118;2024-03-17T07:57:59;13.80;99.90
17774;DHT22;9011;33.236;-97.118;2024-03-17T08:00:27;13.80;99.90
17774;DHT22;9011;33.236;-97.118;2024-03-17T08:02:54;13.70;99.90
17774;DHT22;9011;33.236;-97.118;2024-03-17T08:05:23;13.70;99.90
17774;DHT22;9011;33.236;-97.118;2024-03-17T08:07:50;13.70;99.90
17774;DHT22;9011;33.236;-97.118;2024-03-17T08:10:18;13.70;99.90
17774;DHT22;9011;33.236;-97.118;2024-03-17T08:12:46;13.70;99.90
17774;DHT22;9011;33.236;-97.118;2024-03-17T08:15:13;13.60;99.90
17774;DHT22;9011;33.236;-97.118;2024-03-17T08:17:41;13.70;99.90
17774;DHT22;9011;33.236;-97.118;2024-03-17T08:20:09;13.70;99.90
17774;DHT22;9011;33.236;-97.118;2024-03-17T08:22:37;13.70;99.90
17774;DHT22;9011;33.236;-97.118;2024-03-17T08:25:06;13.70;99.90
17774;DHT22;9011;33.236;-97.118;2024-03-17T08:27:33;13.70;99.90
17774;DHT22;9011;33.236;-97.118;2024-03-17T08:30:01;13.70;99.90
17774;DHT22;9011;33.236;-97.118;2024-03-17T08:32:29;13.70;99.90
17774;DHT22;9011;33.236;-97.118;2024-03-17T08:34:57;13.70;99.90
17774;DHT22;9011;33.236;-97.118;2024-03-17T08:37:24;13.60;99.90
17774;DHT22;9011;33.236;-97.118;2024-03-17T08:39:53;13.50;99.90
17774;DHT22;9011;33.236;-97.118;2024-03-17T08:42:20;13.50;99.90
17774;DHT22;9011;33.236;-97.118;2024-03-17T08:44:48;13.50;99.90
17774;DHT22;9011;33.236;-97.118;2024-03-17T08:47:15;13.60;99.90
17774;DHT22;9011;33.236;-97.118;2024-03-17T08:49:43;13.60;99.90
17774;DHT22;9011;33.236;-97.118;2024-03-17T08:52:10;13.60;99.90
17774;DHT22;9011;33.236;-97.118;2024-03-17T08:54:38;13.70;99.90
17774;DHT22;9011;33.236;-97.118;2024-03-17T08:57:06;13.70;99.90
17774;DHT22;9011;33.236;-97.118;2024-03-17T08:59:34;13.70;99.90
17774;DHT22;9011;33.236;-97.118;2024-03-17T09:02:01;13.70;99.90
17774;DHT22;9011;33.236;-97.118;2024-03-17T09:04:30;13.70;99.90
17774;DHT22;9011;33.236;-97.118;2024-03-17T09:06:58;13.70;99.90
17774;DHT22;9011;33.236;-97.118;2024-03-17T09:09:27;13.60;99.90
17774;DHT22;9011;33.236;-97.118;2024-03-17T09:11:54;13.60;99.90
17774;DHT22;9011;33.236;-97.118;2024-03-17T09:14:23;13.50;99.90
17774;DHT22;9011;33.236;-97.118;2024-03-17T09:16:50;13.60;99.90
17774;DHT22;9011;33.236;-97.118;2024-03-17T09:19:18;13.60;99.90
17774;DHT22;9011;33.236;-97.118;2024-03-17T09:21:45;13.60;99.90
17774;DHT22;9011;33.236;-97.118;2024-03-17T09:24:13;13.50;99.90
17774;DHT22;9011;33.236;-97.118;2024-03-17T09:26:41;13.40;99.90
17774;DHT22;9011;33.236;-97.118;2024-03-17T09:29:09;13.40;99.90
17774;DHT22;9011;33.236;-97.118;2024-03-17T09:31:37;13.40;99.90
17774;DHT22;9011;33.236;-97.118;2024-03-17T09:34:06;13.40;99.90
17774;DHT22;9011;33.236;-97.118;2024-03-17T09:36:33;13.30;99.90
17774;DHT22;9011;33.236;-97.118;2024-03-17T09:39:01;13.40;99.90
17774;DHT22;9011;33.236;-97.118;2024-03-17T09:41:31;13.40;99.90
17774;DHT22;9011;33.236;-97.118;2024-03-17T09:43:59;13.40;99.90
17774;DHT22;9011;33.236;-97.118;2024-03-17T09:46:28;13.40;99.90
17774;DHT22;9011;33.236;-97.118;2024-03-17T09:48:56;13.40;99.90
17774;DHT22;9011;33.236;-97.118;2024-03-17T09:51:25;13.30;99.90
17774;DHT22;9011;33.236;-97.118;2024-03-17T09:53:53;13.30;99.90
17774;DHT22;9011;33.236;-97.118;2024-03-17T09:56:21;13.30;99.90
17774;DHT22;9011;33.236;-97.118;2024-03-17T09:58:49;13.20;99.90
17774;DHT22;9011;33.236;-97.118;2024-03-17T10:01:17;13.20;99.90
17774;DHT22;9011;33.236;-97.118;2024-03-17T10:03:45;13.20;99.90
17774;DHT22;9011;33.236;-97.118;2024-03-17T10:06:19;13.20;99.90
17774;DHT22;9011;33.236;-97.118;2024-03-17T10:08:47;13.10;99.90
17774;DHT22;9011;33.236;-97.118;2024-03-17T10:11:16;13.10;99.90
17774;DHT22;9011;33.236;-97.118;2024-03-17T10:13:44;13.20;99.90
17774;DHT22;9011;33.236;-97.118;2024-03-17T10:16:22;13.10;99.90
17774;DHT22;9011;33.236;-97.118;2024-03-17T10:18:51;13.10;99.90
17774;DHT22;9011;33.236;-97.118;2024-03-17T10:21:33;13.10;99.90
17774;DHT22;9011;33.236;-97.118;2024-03-17T10:24:08;13.00;99.90
17774;DHT22;9011;33.236;-97.118;2024-03-17T10:26:43;13.00;99.90
17774;DHT22;9011;33.236;-97.118;2024-03-17T10:29:21;13.00;99.90
17774;DHT22;9011;33.236;-97.118;2024-03-17T10:31:51;13.00;99.90
17774;DHT22;9011;33.236;-97.118;2024-03-17T10:34:19;13.00;99.90
17774;DHT22;9011;33.236;-97.118;2024-03-17T10:36:48;12.90;99.90
17774;DHT22;9011;33.236;-97.118;2024-03-17T10:39:25;12.90;99.90
17774;DHT22;9011;33.236;-97.118;2024-03-17T10:41:59;13.00;99.90
17774;DHT22;9011;33.236;-97.118;2024-03-17T10:44:27;12.90;99.90
17774;DHT22;9011;33.236;-97.118;2024-03-17T10:46:56;12.90;99.90
17774;DHT22;9011;33.236;-97.118;2024-03-17T10:49:28;12.90;99.90
17774;DHT22;9011;33.236;-97.118;2024-03-17T10:51:59;12.80;99.90
17774;DHT22;9011;33.236;-97.118;2024-03-17T10:54:29;12.80;99.90
17774;DHT22;9011;33.236;-97.118;2024-03-17T10:57:00;12.80;99.90
17774;DHT22;9011;33.236;-97.118;2024-03-17T10:59:38;12.80;99.90
17774;DHT22;9011;33.236;-97.118;2024-03-17T11:02:17;12.80;99.90
17774;DHT22;9011;33.236;-97.118;2024-03-17T11:04:50;12.90;99.90
17774;DHT22;9011;33.236;-97.118;2024-03-17T11:07:19;12.80;99.90
17774;DHT22;9011;33.236;-97.118;2024-03-17T11:09:47;12.90;99.90
17774;DHT22;9011;33.236;-97.118;2024-03-17T11:12:40;12.80;99.90
17774;DHT22;9011;33.236;-97.118;2024-03-17T11:18:37;12.90;99.90
17774;DHT22;9011;33.236;-97.118;2024-03-17T11:21:19;12.90;99.90
17774;DHT22;9011;33.236;-97.118;2024-03-17T11:23:58;12.90;99.90
17774;DHT22;9011;33.236;-97.118;2024-03-17T11:26:31;12.90;99.90
17774;DHT22;9011;33.236;-97.118;2024-03-17T11:28:59;12.90;99.90
17774;DHT22;9011;33.236;-97.118;2024-03-17T11:31:48;12.80;99.90
17774;DHT22;9011;33.236;-97.118;2024-03-17T11:34:29;12.70;99.90
17774;DHT22;9011;33.236;-97.118;2024-03-17T11:36:57;12.80;99.90
17774;DHT22;9011;33.236;-97.118;2024-03-17T11:39:51;12.80;99.90
17774;DHT22;9011;33.236;-97.118;2024-03-17T11:42:22;12.90;99.90
17774;DHT22;9011;33.236;-97.118;2024-03-17T11:44:57;12.90;99.90
17774;DHT22;9011;33.236;-97.118;2024-03-17T11:47:33;12.80;99.90
17774;DHT22;9011;33.236;-97.118;2024-03-17T11:50:03;12.90;99.90
17774;DHT22;9011;33.236;-97.118;2024-03-17T11:52:31;12.90;99.90
17774;DHT22;9011;33.236;-97.118;2024-03-17T11:55:00;12.80;99.90
17774;DHT22;9011;33.236;-97.118;2024-03-17T11:57:27;12.80;99.90
17774;DHT22;9011;33.236;-97.118;2024-03-17T11:59:56;12.80;99.90
17774;DHT22;9011;33.236;-97.118;2024-03-17T12:02:25;12.90;99.90
17774;DHT22;9011;33.236;-97.118;2024-03-17T12:04:53;12.90;99.90
17774;DHT22;9011;33.236;-97.118;2024-03-17T12:07:21;12.90;99.90
17774;DHT22;9011;33.236;-97.118;2024-03-17T12:09:50;12.80;99.90
17774;DHT22;9011;33.236;-97.118;2024-03-17T12:12:20;12.80;99.90
17774;DHT22;9011;33.236;-97.118;2024-03-17T12:14:49;12.80;99.90
17774;DHT22;9011;33.236;-97.118;2024-03-17T12:17:21;12.80;99.90
17774;DHT22;9011;33.236;-97.118;2024-03-17T12:19:49;12.90;99.90
17774;DHT22;9011;33.236;-97.118;2024-03-17T12:22:18;12.90;99.90
17774;DHT22;9011;33.236;-97.118;2024-03-17T12:24:49;12.90;99.90
17774;DHT22;9011;33.236;-97.118;2024-03-17T12:27:19;12.90;99.90
17774;DHT22;9011;33.236;-97.118;2024-03-17T12:29:48;12.80;99.90
17774;DHT22;9011;33.236;-97.118;2024-03-17T12:32:17;12.90;99.90
17774;DHT22;9011;33.236;-97.118;2024-03-17T12:34:44;13.00;99.90
17774;DHT22;9011;33.236;-97.118;2024-03-17T12:37:16;13.00;99.90
17774;DHT22;9011;33.236;-97.118;2024-03-17T12:39:44;13.00;99.90
17774;DHT22;9011;33.236;-97.118;2024-03-17T12:42:14;13.00;99.90
17774;DHT22;9011;33.236;-97.118;2024-03-17T12:44:54;13.00;99.90
17774;DHT22;9011;33.236;-97.118;2024-03-17T12:47:22;13.00;99.90
17774;DHT22;9011;33.236;-97.118;2024-03-17T12:49:50;13.00;99.90
17774;DHT22;9011;33.236;-97.118;2024-03-17T12:52:20;13.00;99.90
17774;DHT22;9011;33.236;-97.118;2024-03-17T12:54:57;13.00;99.90
17774;DHT22;9011;33.236;-97.118;2024-03-17T12:57:39;13.00;99.90
17774;DHT22;9011;33.236;-97.118;2024-03-17T13:00:25;13.00;99.90
17774;DHT22;9011;33.236;-97.118;2024-03-17T13:02:58;12.90;99.90
17774;DHT22;9011;33.236;-97.118;2024-03-17T13:05:26;13.00;99.90
17774;DHT22;9011;33.236;-97.118;2024-03-17T13:07:54;12.90;99.90
17774;DHT22;9011;33.236;-97.118;2024-03-17T13:10:23;13.00;99.90
17774;DHT22;9011;33.236;-97.118;2024-03-17T13:12:59;13.10;99.90
17774;DHT22;9011;33.236;-97.118;2024-03-17T13:15:28;13.00;99.90
17774;DHT22;9011;33.236;-97.118;2024-03-17T13:17:57;13.10;99.90
17774;DHT22;9011;33.236;-97.118;2024-03-17T13:20:25;13.10;99.90
17774;DHT22;9011;33.236;-97.118;2024-03-17T13:22:53;13.20;99.90
17774;DHT22;9011;33.236;-97.118;2024-03-17T13:25:21;13.20;99.90
17774;DHT22;9011;33.236;-97.118;2024-03-17T13:27:51;13.30;99.90
17774;DHT22;9011;33.236;-97.118;2024-03-17T13:30:20;13.20;99.90
17774;DHT22;9011;33.236;-97.118;2024-03-17T13:32:50;13.20;99.90
17774;DHT22;9011;33.236;-97.118;2024-03-17T13:35:24;13.30;99.90
17774;DHT22;9011;33.236;-97.118;2024-03-17T13:37:52;13.30;99.90
17774;DHT22;9011;33.236;-97.118;2024-03-17T13:40:20;13.20;99.90
17774;DHT22;9011;33.236;-97.118;2024-03-17T13:42:49;13.20;99.90
17774;DHT22;9011;33.236;-97.118;2024-03-17T13:45:18;13.20;99.90
17774;DHT22;9011;33.236;-97.118;2024-03-17T13:47:50;13.30;99.90
17774;DHT22;9011;33.236;-97.118;2024-03-17T13:50:18;13.20;99.90
17774;DHT22;9011;33.236;-97.118;2024-03-17T13:52:45;13.30;99.90
17774;DHT22;9011;33.236;-97.118;2024-03-17T13:55:15;13.40;99.90
17774;DHT22;9011;33.236;-97.118;2024-03-17T13:57:44;13.30;99.90
17774;DHT22;9011;33.236;-97.118;2024-03-17T14:00:13;13.30;99.90
17774;DHT22;9011;33.236;-97.118;2024-03-17T14:02:42;13.30;99.90
17774;DHT22;9011;33.236;-97.118;2024-03-17T14:05:13;13.30;99.90
17774;DHT22;9011;33.236;-97.118;2024-03-17T14:07:41;13.40;99.90
17774;DHT22;9011;33.236;-97.118;2024-03-17T14:10:10;13.50;99.90
17774;DHT22;9011;33.236;-97.118;2024-03-17T14:12:38;13.60;99.90
17774;DHT22;9011;33.236;-97.118;2024-03-17T14:15:07;13.60;99.90
17774;DHT22;9011;33.236;-97.118;2024-03-17T14:17:37;13.70;99.90
17774;DHT22;9011;33.236;-97.118;2024-03-17T14:20:05;13.60;99.90
17774;DHT22;9011;33.236;-97.118;2024-03-17T14:22:36;13.70;99.90
17774;DHT22;9011;33.236;-97.118;2024-03-17T14:25:05;13.80;99.90
17774;DHT22;9011;33.236;-97.118;2024-03-17T14:27:33;13.90;99.90
17774;DHT22;9011;33.236;-97.118;2024-03-17T14:30:01;13.90;99.90
17774;DHT22;9011;33.236;-97.118;2024-03-17T14:32:30;13.90;99.90
17774;DHT22;9011;33.236;-97.118;2024-03-17T14:34:58;14.00;99.90
17774;DHT22;9011;33.236;-97.118;2024-03-17T14:37:26;14.00;99.90
17774;DHT22;9011;33.236;-97.118;2024-03-17T14:39:55;14.10;99.90
17774;DHT22;9011;33.236;-97.118;2024-03-17T14:42:23;14.00;99.90
17774;DHT22;9011;33.236;-97.118;2024-03-17T14:44:51;14.10;99.90
17774;DHT22;9011;33.236;-97.118;2024-03-17T14:47:18;14.00;99.90
17774;DHT22;9011;33.236;-97.118;2024-03-17T14:49:46;14.10;99.90
17774;DHT22;9011;33.236;-97.118;2024-03-17T14:52:14;14.20;99.90
17774;DHT22;9011;33.236;-97.118;2024-03-17T14:54:41;14.20;99.90
17774;DHT22;9011;33.236;-97.118;2024-03-17T14:57:09;14.30;99.90
17774;DHT22;9011;33.236;-97.118;2024-03-17T14:59:38;14.40;99.90
17774;DHT22;9011;33.236;-97.118;2024-03-17T15:02:07;14.50;99.90
17774;DHT22;9011;33.236;-97.118;2024-03-17T15:04:34;14.50;99.90
17774;DHT22;9011;33.236;-97.118;2024-03-17T15:07:02;14.50;99.90
17774;DHT22;9011;33.236;-97.118;2024-03-17T15:09:30;14.60;99.90
17774;DHT22;9011;33.236;-97.118;2024-03-17T15:11:58;14.70;99.90
17774;DHT22;9011;33.236;-97.118;2024-03-17T15:14:28;14.60;99.90
17774;DHT22;9011;33.236;-97.118;2024-03-17T15:16:57;14.70;99.90
17774;DHT22;9011;33.236;-97.118;2024-03-17T15:19:25;14.60;99.90
17774;DHT22;9011;33.236;-97.118;2024-03-17T15:21:57;14.70;99.90
17774;DHT22;9011;33.236;-97.118;2024-03-17T15:24:24;14.70;99.90
17774;DHT22;9011;33.236;-97.118;2024-03-17T15:26:52;14.90;99.90
17774;DHT22;9011;33.236;-97.118;2024-03-17T15:29:20;14.90;99.90